createdAt,value
2023-01-07T00:00:01.417Z,12.20
2023-01-07T00:10:01.976Z,12.21
2023-01-07T00:20:02.006Z,12.22
2023-01-07T00:30:02.019Z,12.23
2023-01-07T00:40:02.025Z,12.25
2023-01-07T00:50:02.181Z,12.26
2023-01-07T01:00:02.566Z,12.26
2023-01-07T01:10:03.042Z,12.26
2023-01-07T01:20:03.135Z,12.26
2023-01-07T01:30:03.671Z,12.27
2023-01-07T01:40:04.172Z,12.28
2023-01-07T01:50:06.041Z,12.28
2023-01-07T02:00:11.498Z,12.29
2023-01-07T02:10:11.344Z,12.29
2023-01-07T02:20:13.165Z,12.28
2023-01-07T02:30:13.367Z,12.27
2023-01-07T02:40:13.262Z,12.26
2023-01-07T02:50:13.469Z,12.24
2023-01-07T03:00:13.308Z,12.21
2023-01-07T03:10:13.424Z,12.18
2023-01-07T03:20:13.355Z,12.16
2023-01-07T03:30:13.302Z,12.12
2023-01-07T03:40:13.728Z,12.01
2023-01-07T03:50:16.163Z,11.79
2023-01-07T04:00:18.278Z,11.56
2023-01-07T04:10:18.378Z,11.36
2023-01-07T04:20:18.501Z,11.18
2023-01-07T04:30:18.464Z,11.05
2023-01-07T04:40:18.872Z,10.97
2023-01-07T04:50:19.524Z,10.96
2023-01-07T05:00:20.689Z,10.98
2023-01-07T05:10:20.936Z,11.04
2023-01-07T05:20:21.503Z,11.15
2023-01-07T05:30:21.541Z,11.28
2023-01-07T05:40:21.440Z,11.40
2023-01-07T05:50:23.289Z,11.50
2023-01-07T06:00:23.474Z,11.59
2023-01-07T06:10:26.515Z,11.65
2023-01-07T06:20:26.523Z,11.68
2023-01-07T06:30:26.449Z,11.69
2023-01-07T06:40:26.428Z,11.70
2023-01-07T06:50:26.637Z,11.69
2023-01-07T07:00:26.567Z,11.69
2023-01-07T07:10:26.536Z,11.71
2023-01-07T07:20:28.876Z,11.73
2023-01-07T07:30:45.884Z,11.76
2023-01-07T07:40:30.532Z,11.80
2023-01-07T07:50:30.548Z,11.84
2023-01-07T08:00:30.556Z,11.87
2023-01-07T08:10:30.577Z,11.90
2023-01-07T08:20:30.678Z,11.94
2023-01-07T08:30:30.709Z,12.00
2023-01-07T08:40:30.652Z,12.07
2023-01-07T08:50:30.822Z,12.17
2023-01-07T09:00:30.763Z,12.29
2023-01-07T09:10:30.644Z,12.42
2023-01-07T09:20:50.066Z,12.54
2023-01-07T09:30:50.746Z,12.71
2023-01-07T09:40:50.837Z,13.03
2023-01-07T09:50:50.189Z,13.47
2023-01-07T10:00:50.758Z,13.97
2023-01-07T10:10:50.758Z,14.51
2023-01-07T10:20:50.776Z,14.94
2023-01-07T10:30:51.782Z,15.12
2023-01-07T10:40:52.021Z,15.05
2023-01-07T10:50:51.937Z,14.85
2023-01-07T11:00:52.019Z,14.79
2023-01-07T11:10:51.902Z,14.79
2023-01-07T11:20:52.000Z,14.73
2023-01-07T11:30:51.842Z,14.60
2023-01-07T11:40:51.898Z,14.64
2023-01-07T11:50:51.876Z,14.86
2023-01-07T12:00:51.898Z,15.05
2023-01-07T12:10:51.915Z,15.16
2023-01-07T12:20:51.936Z,15.18
2023-01-07T12:30:54.025Z,15.18
2023-01-07T12:40:53.928Z,15.15
2023-01-07T12:50:54.014Z,15.01
2023-01-07T13:00:54.070Z,14.67
2023-01-07T13:10:53.936Z,14.25
2023-01-07T13:20:53.998Z,13.94
2023-01-07T13:30:54.101Z,13.82
2023-01-07T13:40:53.987Z,13.86
2023-01-07T13:50:54.100Z,13.92
2023-01-07T14:00:54.063Z,13.96
2023-01-07T14:10:54.131Z,13.91
2023-01-07T14:20:54.131Z,13.95
2023-01-07T14:30:54.613Z,14.05
2023-01-07T14:40:55.138Z,14.03
2023-01-07T14:50:55.116Z,13.78
2023-01-07T15:00:55.164Z,13.47
2023-01-07T15:11:13.341Z,13.14
2023-01-07T15:21:17.689Z,12.75
2023-01-07T15:31:18.174Z,12.32
2023-01-07T15:41:21.230Z,11.92
2023-01-07T15:51:21.299Z,11.58
2023-01-07T16:01:21.480Z,11.27
2023-01-07T16:11:21.188Z,10.99
2023-01-07T16:21:21.252Z,10.73
2023-01-07T16:31:21.257Z,10.52
2023-01-07T16:41:21.191Z,10.36
2023-01-07T16:51:21.309Z,10.24
2023-01-07T17:01:21.513Z,10.19
2023-01-07T17:11:21.277Z,10.23
2023-01-07T17:21:21.330Z,10.28
2023-01-07T17:31:24.638Z,10.29
2023-01-07T17:41:43.637Z,10.30
2023-01-07T17:51:43.339Z,10.35
2023-01-07T18:01:43.587Z,10.47
2023-01-07T18:12:01.681Z,10.66
2023-01-07T18:22:01.384Z,10.79
2023-01-07T18:32:01.401Z,10.90
2023-01-07T18:42:01.357Z,11.03
2023-01-07T18:52:01.443Z,11.17
2023-01-07T19:02:01.615Z,11.30
2023-01-07T19:12:01.496Z,11.41
2023-01-07T19:22:01.549Z,11.44
2023-01-07T19:32:01.652Z,11.46
2023-01-07T19:42:01.510Z,11.52
2023-01-07T19:52:01.530Z,11.60
2023-01-07T20:02:01.926Z,11.71
2023-01-07T20:12:02.487Z,11.82
2023-01-07T20:22:02.716Z,11.90
2023-01-07T20:32:04.597Z,11.94
2023-01-07T20:42:05.587Z,11.92
2023-01-07T20:52:05.647Z,11.82
2023-01-07T21:02:05.820Z,11.63
2023-01-07T21:12:06.664Z,11.42
2023-01-07T21:22:06.684Z,11.25
2023-01-07T21:32:06.698Z,11.15
2023-01-07T21:42:08.546Z,11.11
2023-01-07T21:52:08.934Z,11.12
2023-01-07T22:02:08.802Z,11.17
2023-01-07T22:12:08.715Z,11.26
2023-01-07T22:22:08.746Z,11.39
2023-01-07T22:32:08.656Z,11.53
2023-01-07T22:42:08.733Z,11.68
2023-01-07T22:52:08.748Z,11.80
2023-01-07T23:02:09.407Z,11.90
2023-01-07T23:12:10.653Z,11.98
2023-01-07T23:22:10.816Z,12.03
2023-01-07T23:32:12.094Z,12.07
2023-01-07T23:42:11.806Z,12.08
2023-01-07T23:52:11.883Z,12.04
